<?xml version="1.0" encoding="UTF-8" standalone="no"?>
<gpx xmlns="http://www.topografix.com/GPX/1/0" creator="GlobalMotion" version="1.0" xmlns:xsi="http://www.w3.org/2001/XMLSchema-instance" xsi:schemaLocation="http://www.topografix.com/GPX/1/0 http://www.topografix.com/GPX/1/0/gpx.xsd"><trk>
  <name>merged track</name>
<number>432</number>
<trkseg>
<trkpt lat="42.370450000" lon="-71.059200000">
  <ele>0.000000</ele>
  <time>2011-10-07T13:44:13Z</time>
</trkpt>
<trkpt lat="42.369820000" lon="-71.051490000">
  <ele>0.000000</ele>
  <time>2011-10-07T13:52:32Z</time>
</trkpt>
<trkpt lat="42.358150000" lon="-71.037840000">
  <ele>0.000000</ele>
  <time>2011-10-07T14:02:32Z</time>
</trkpt>
<trkpt lat="42.335010000" lon="-70.996280000">
  <ele>0.000000</ele>
  <time>2011-10-07T14:12:20Z</time>
</trkpt>
<trkpt lat="42.317760000" lon="-70.876480000">
  <ele>0.000000</ele>
  <time>2011-10-07T14:32:12Z</time>
</trkpt>
<trkpt lat="42.299740000" lon="-70.818030000">
  <ele>0.000000</ele>
  <time>2011-10-07T14:42:12Z</time>
</trkpt>
<trkpt lat="42.278800000" lon="-70.760010000">
  <ele>0.000000</ele>
  <time>2011-10-07T14:52:12Z</time>
</trkpt>
<trkpt lat="42.241840000" lon="-70.721000000">
  <ele>0.000000</ele>
  <time>2011-10-07T15:02:29Z</time>
</trkpt>
<trkpt lat="42.200600000" lon="-70.687010000">
  <ele>0.000000</ele>
  <time>2011-10-07T15:12:29Z</time>
</trkpt>
<trkpt lat="41.952660000" lon="-70.522130000">
  <ele>0.000000</ele>
  <time>2011-10-07T16:12:10Z</time>
</trkpt>
<trkpt lat="41.909680000" lon="-70.502990000">
  <ele>0.000000</ele>
  <time>2011-10-07T16:22:07Z</time>
</trkpt>
<trkpt lat="41.864380000" lon="-70.496490000">
  <ele>0.000000</ele>
  <time>2011-10-07T16:32:09Z</time>
</trkpt>
<trkpt lat="41.819830000" lon="-70.489630000">
  <ele>0.000000</ele>
  <time>2011-10-07T16:42:11Z</time>
</trkpt>
<trkpt lat="41.779060000" lon="-70.489200000">
  <ele>0.000000</ele>
  <time>2011-10-07T16:52:11Z</time>
</trkpt>
<trkpt lat="41.774220000" lon="-70.522460000">
  <ele>0.000000</ele>
  <time>2011-10-07T17:03:02Z</time>
</trkpt>
<trkpt lat="41.775680000" lon="-70.551270000">
  <ele>0.000000</ele>
  <time>2011-10-07T17:12:10Z</time>
</trkpt>
<trkpt lat="41.649330000" lon="-70.806850000">
  <ele>0.000000</ele>
  <time>2011-10-07T18:51:59Z</time>
</trkpt>
<trkpt lat="41.648490000" lon="-70.806000000">
  <ele>0.000000</ele>
  <time>2011-10-08T12:40:41Z</time>
</trkpt>
<trkpt lat="41.638350000" lon="-70.792710000">
  <ele>0.000000</ele>
  <time>2011-10-08T12:50:13Z</time>
</trkpt>
<trkpt lat="41.603160000" lon="-70.774690000">
  <ele>0.000000</ele>
  <time>2011-10-08T13:00:13Z</time>
</trkpt>
<trkpt lat="41.562130000" lon="-70.800780000">
  <ele>0.000000</ele>
  <time>2011-10-08T13:10:13Z</time>
</trkpt>
<trkpt lat="41.524650000" lon="-70.830760000">
  <ele>0.000000</ele>
  <time>2011-10-08T13:19:59Z</time>
</trkpt>
<trkpt lat="41.496800000" lon="-70.878480000">
  <ele>0.000000</ele>
  <time>2011-10-08T13:29:59Z</time>
</trkpt>
<trkpt lat="41.476630000" lon="-70.931670000">
  <ele>0.000000</ele>
  <time>2011-10-08T13:39:59Z</time>
</trkpt>
<trkpt lat="41.461140000" lon="-70.979310000">
  <ele>0.000000</ele>
  <time>2011-10-08T13:49:59Z</time>
</trkpt>
<trkpt lat="41.445850000" lon="-71.024690000">
  <ele>0.000000</ele>
  <time>2011-10-08T13:59:55Z</time>
</trkpt>
<trkpt lat="41.429700000" lon="-71.073030000">
  <ele>0.000000</ele>
  <time>2011-10-08T14:10:31Z</time>
</trkpt>
<trkpt lat="41.415430000" lon="-71.116150000">
  <ele>0.000000</ele>
  <time>2011-10-08T14:19:54Z</time>
</trkpt>
<trkpt lat="41.397950000" lon="-71.170260000">
  <ele>0.000000</ele>
  <time>2011-10-08T14:29:58Z</time>
</trkpt>
<trkpt lat="41.356460000" lon="-71.272310000">
  <ele>0.000000</ele>
  <time>2011-10-08T14:49:56Z</time>
</trkpt>
<trkpt lat="41.339910000" lon="-71.326020000">
  <ele>0.000000</ele>
  <time>2011-10-08T14:59:52Z</time>
</trkpt>
<trkpt lat="41.324500000" lon="-71.380800000">
  <ele>0.000000</ele>
  <time>2011-10-08T15:09:51Z</time>
</trkpt>
<trkpt lat="41.307260000" lon="-71.434810000">
  <ele>0.000000</ele>
  <time>2011-10-08T15:19:51Z</time>
</trkpt>
<trkpt lat="41.276280000" lon="-71.527010000">
  <ele>0.000000</ele>
  <time>2011-10-08T15:39:47Z</time>
</trkpt>
<trkpt lat="41.253920000" lon="-71.571990000">
  <ele>0.000000</ele>
  <time>2011-10-08T15:49:49Z</time>
</trkpt>
<trkpt lat="41.213430000" lon="-71.588200000">
  <ele>0.000000</ele>
  <time>2011-10-08T15:59:51Z</time>
</trkpt>
<trkpt lat="41.191360000" lon="-71.582370000">
  <ele>0.000000</ele>
  <time>2011-10-08T16:09:48Z</time>
</trkpt>
<trkpt lat="41.184940000" lon="-71.577760000">
  <ele>0.000000</ele>
  <time>2011-10-08T16:19:50Z</time>
</trkpt>
<trkpt lat="41.184970000" lon="-71.577820000">
  <ele>0.000000</ele>
  <time>2011-10-08T16:29:47Z</time>
</trkpt>
<trkpt lat="41.185060000" lon="-71.577820000">
  <ele>0.000000</ele>
  <time>2011-10-08T17:00:48Z</time>
</trkpt>
<trkpt lat="41.185040000" lon="-71.577760000">
  <ele>0.000000</ele>
  <time>2011-10-08T17:09:48Z</time>
</trkpt>
<trkpt lat="41.184880000" lon="-71.577790000">
  <ele>0.000000</ele>
  <time>2011-10-09T12:05:49Z</time>
</trkpt>
<trkpt lat="41.197420000" lon="-71.589600000">
  <ele>0.000000</ele>
  <time>2011-10-09T12:15:10Z</time>
</trkpt>
<trkpt lat="41.205430000" lon="-71.644100000">
  <ele>0.000000</ele>
  <time>2011-10-09T12:25:06Z</time>
</trkpt>
<trkpt lat="41.207800000" lon="-71.720580000">
  <ele>0.000000</ele>
  <time>2011-10-09T12:35:12Z</time>
</trkpt>
<trkpt lat="41.210360000" lon="-71.797130000">
  <ele>0.000000</ele>
  <time>2011-10-09T12:45:04Z</time>
</trkpt>
<trkpt lat="41.212510000" lon="-71.884760000">
  <ele>0.000000</ele>
  <time>2011-10-09T12:55:04Z</time>
</trkpt>
<trkpt lat="41.214960000" lon="-71.952390000">
  <ele>0.000000</ele>
  <time>2011-10-09T13:05:04Z</time>
</trkpt>
<trkpt lat="41.216870000" lon="-72.030820000">
  <ele>0.000000</ele>
  <time>2011-10-09T13:15:06Z</time>
</trkpt>
<trkpt lat="41.214230000" lon="-72.125820000">
  <ele>0.000000</ele>
  <time>2011-10-09T13:27:30Z</time>
</trkpt>
<trkpt lat="41.205390000" lon="-72.181400000">
  <ele>0.000000</ele>
  <time>2011-10-09T13:35:05Z</time>
</trkpt>
<trkpt lat="41.190980000" lon="-72.255890000">
  <ele>0.000000</ele>
  <time>2011-10-09T13:45:05Z</time>
</trkpt>
<trkpt lat="41.165280000" lon="-72.405730000">
  <ele>0.000000</ele>
  <time>2011-10-09T14:05:04Z</time>
</trkpt>
<trkpt lat="41.152040000" lon="-72.480990000">
  <ele>0.000000</ele>
  <time>2011-10-09T14:15:03Z</time>
</trkpt>
<trkpt lat="41.125350000" lon="-72.628600000">
  <ele>0.000000</ele>
  <time>2011-10-09T14:37:11Z</time>
</trkpt>
<trkpt lat="41.113970000" lon="-72.686520000">
  <ele>0.000000</ele>
  <time>2011-10-09T14:45:01Z</time>
</trkpt>
<trkpt lat="41.099140000" lon="-72.765750000">
  <ele>0.000000</ele>
  <time>2011-10-09T14:55:40Z</time>
</trkpt>
<trkpt lat="41.086520000" lon="-72.836850000">
  <ele>0.000000</ele>
  <time>2011-10-09T15:05:19Z</time>
</trkpt>
<trkpt lat="41.055050000" lon="-73.011050000">
  <ele>0.000000</ele>
  <time>2011-10-09T15:28:44Z</time>
</trkpt>
<trkpt lat="41.045870000" lon="-73.062330000">
  <ele>0.000000</ele>
  <time>2011-10-09T15:35:04Z</time>
</trkpt>
<trkpt lat="41.031920000" lon="-73.132110000">
  <ele>0.000000</ele>
  <time>2011-10-09T15:45:04Z</time>
</trkpt>
<trkpt lat="41.017750000" lon="-73.208650000">
  <ele>0.000000</ele>
  <time>2011-10-09T15:54:57Z</time>
</trkpt>
<trkpt lat="41.002000000" lon="-73.294310000">
  <ele>0.000000</ele>
  <time>2011-10-09T16:04:57Z</time>
</trkpt>
<trkpt lat="40.986660000" lon="-73.383300000">
  <ele>0.000000</ele>
  <time>2011-10-09T16:15:21Z</time>
</trkpt>
<trkpt lat="40.968900000" lon="-73.465940000">
  <ele>0.000000</ele>
  <time>2011-10-09T16:25:18Z</time>
</trkpt>
<trkpt lat="40.918820000" lon="-73.628080000">
  <ele>0.000000</ele>
  <time>2011-10-09T16:45:19Z</time>
</trkpt>
<trkpt lat="40.881860000" lon="-73.723020000">
  <ele>0.000000</ele>
  <time>2011-10-09T16:54:59Z</time>
</trkpt>
<trkpt lat="40.844820000" lon="-73.763190000">
  <ele>0.000000</ele>
  <time>2011-10-09T17:04:59Z</time>
</trkpt>
<trkpt lat="40.801650000" lon="-73.792720000">
  <ele>0.000000</ele>
  <time>2011-10-09T17:14:59Z</time>
</trkpt>
<trkpt lat="40.798720000" lon="-73.872830000">
  <ele>0.000000</ele>
  <time>2011-10-09T17:24:55Z</time>
</trkpt>
<trkpt lat="40.776530000" lon="-73.939780000">
  <ele>0.000000</ele>
  <time>2011-10-09T17:34:55Z</time>
</trkpt>
<trkpt lat="40.722370000" lon="-73.969390000">
  <ele>0.000000</ele>
  <time>2011-10-09T17:44:55Z</time>
</trkpt>
<trkpt lat="40.694090000" lon="-74.022670000">
  <ele>0.000000</ele>
  <time>2011-10-09T17:55:00Z</time>
</trkpt>
<trkpt lat="40.647160000" lon="-74.051670000">
  <ele>0.000000</ele>
  <time>2011-10-09T18:04:48Z</time>
</trkpt>
<trkpt lat="40.584770000" lon="-74.040410000">
  <ele>0.000000</ele>
  <time>2011-10-09T18:15:05Z</time>
</trkpt>
<trkpt lat="40.519270000" lon="-74.042690000">
  <ele>0.000000</ele>
  <time>2011-10-09T18:24:55Z</time>
</trkpt>
<trkpt lat="40.474270000" lon="-74.037720000">
  <ele>0.000000</ele>
  <time>2011-10-09T18:34:52Z</time>
</trkpt>
<trkpt lat="40.439380000" lon="-74.020260000">
  <ele>0.000000</ele>
  <time>2011-10-09T18:45:30Z</time>
</trkpt>
<trkpt lat="40.423210000" lon="-74.012600000">
  <ele>0.000000</ele>
  <time>2011-10-09T18:54:51Z</time>
</trkpt>
<trkpt lat="40.417720000" lon="-74.031400000">
  <ele>0.000000</ele>
  <time>2011-10-09T19:04:47Z</time>
</trkpt>
<trkpt lat="40.417400000" lon="-74.031430000">
  <ele>0.000000</ele>
  <time>2011-10-09T19:15:14Z</time>
</trkpt>
<trkpt lat="40.442370000" lon="-74.019840000">
  <ele>0.000000</ele>
  <time>2011-10-10T12:24:10Z</time>
</trkpt>
<trkpt lat="40.481140000" lon="-74.012270000">
  <ele>0.000000</ele>
  <time>2011-10-10T12:33:40Z</time>
</trkpt>
<trkpt lat="40.461140000" lon="-73.954070000">
  <ele>0.000000</ele>
  <time>2011-10-10T12:43:24Z</time>
</trkpt>
<trkpt lat="40.406150000" lon="-73.943910000">
  <ele>0.000000</ele>
  <time>2011-10-10T12:53:27Z</time>
</trkpt>
<trkpt lat="40.348380000" lon="-73.942660000">
  <ele>0.000000</ele>
  <time>2011-10-10T13:03:26Z</time>
</trkpt>
<trkpt lat="40.288810000" lon="-73.943450000">
  <ele>0.000000</ele>
  <time>2011-10-10T13:13:34Z</time>
</trkpt>
<trkpt lat="40.210710000" lon="-73.948580000">
  <ele>0.000000</ele>
  <time>2011-10-10T13:27:10Z</time>
</trkpt>
<trkpt lat="40.169900000" lon="-73.951630000">
  <ele>0.000000</ele>
  <time>2011-10-10T13:34:18Z</time>
</trkpt>
<trkpt lat="40.118260000" lon="-73.956570000">
  <ele>0.000000</ele>
  <time>2011-10-10T13:43:23Z</time>
</trkpt>
<trkpt lat="40.061400000" lon="-73.963870000">
  <ele>0.000000</ele>
  <time>2011-10-10T13:53:23Z</time>
</trkpt>
<trkpt lat="40.004070000" lon="-73.970400000">
  <ele>0.000000</ele>
  <time>2011-10-10T14:03:26Z</time>
</trkpt>
<trkpt lat="39.947720000" lon="-73.975740000">
  <ele>0.000000</ele>
  <time>2011-10-10T14:13:22Z</time>
</trkpt>
<trkpt lat="39.835740000" lon="-73.991940000">
  <ele>0.000000</ele>
  <time>2011-10-10T14:33:27Z</time>
</trkpt>
<trkpt lat="39.670840000" lon="-74.069490000">
  <ele>0.000000</ele>
  <time>2011-10-10T15:04:20Z</time>
</trkpt>
<trkpt lat="39.621270000" lon="-74.102200000">
  <ele>0.000000</ele>
  <time>2011-10-10T15:13:30Z</time>
</trkpt>
<trkpt lat="39.571660000" lon="-74.135930000">
  <ele>0.000000</ele>
  <time>2011-10-10T15:23:30Z</time>
</trkpt>
<trkpt lat="39.521920000" lon="-74.171080000">
  <ele>0.000000</ele>
  <time>2011-10-10T15:33:26Z</time>
</trkpt>
<trkpt lat="39.470810000" lon="-74.207640000">
  <ele>0.000000</ele>
  <time>2011-10-10T15:43:26Z</time>
</trkpt>
<trkpt lat="39.421650000" lon="-74.249420000">
  <ele>0.000000</ele>
  <time>2011-10-10T15:53:35Z</time>
</trkpt>
<trkpt lat="39.376660000" lon="-74.295810000">
  <ele>0.000000</ele>
  <time>2011-10-10T16:03:22Z</time>
</trkpt>
<trkpt lat="39.333240000" lon="-74.345520000">
  <ele>0.000000</ele>
  <time>2011-10-10T16:13:19Z</time>
</trkpt>
<trkpt lat="39.288360000" lon="-74.395420000">
  <ele>0.000000</ele>
  <time>2011-10-10T16:23:27Z</time>
</trkpt>
<trkpt lat="39.242860000" lon="-74.449890000">
  <ele>0.000000</ele>
  <time>2011-10-10T16:34:09Z</time>
</trkpt>
<trkpt lat="39.161230000" lon="-74.549410000">
  <ele>0.000000</ele>
  <time>2011-10-10T16:53:31Z</time>
</trkpt>
<trkpt lat="39.077820000" lon="-74.651120000">
  <ele>0.000000</ele>
  <time>2011-10-10T17:13:21Z</time>
</trkpt>
<trkpt lat="39.036240000" lon="-74.701020000">
  <ele>0.000000</ele>
  <time>2011-10-10T17:23:12Z</time>
</trkpt>
<trkpt lat="38.990320000" lon="-74.757230000">
  <ele>0.000000</ele>
  <time>2011-10-10T17:33:45Z</time>
</trkpt>
<trkpt lat="38.958120000" lon="-74.817140000">
  <ele>0.000000</ele>
  <time>2011-10-10T17:43:59Z</time>
</trkpt>
<trkpt lat="38.936730000" lon="-74.862730000">
  <ele>0.000000</ele>
  <time>2011-10-10T17:53:10Z</time>
</trkpt>
<trkpt lat="38.950510000" lon="-74.891020000">
  <ele>0.000000</ele>
  <time>2011-10-10T18:03:13Z</time>
</trkpt>
<trkpt lat="38.951800000" lon="-74.902470000">
  <ele>0.000000</ele>
  <time>2011-10-10T18:13:34Z</time>
</trkpt>
<trkpt lat="38.951260000" lon="-74.906070000">
  <ele>0.000000</ele>
  <time>2011-10-10T18:35:26Z</time>
</trkpt>
<trkpt lat="38.951070000" lon="-74.905760000">
  <ele>0.000000</ele>
  <time>2011-10-10T18:43:52Z</time>
</trkpt>
<trkpt lat="39.061240000" lon="-75.115110000">
  <ele>0.000000</ele>
  <time>2011-10-11T15:06:32Z</time>
</trkpt>
<trkpt lat="39.085820000" lon="-75.151980000">
  <ele>0.000000</ele>
  <time>2011-10-11T15:15:31Z</time>
</trkpt>
<trkpt lat="39.119150000" lon="-75.204250000">
  <ele>0.000000</ele>
  <time>2011-10-11T15:27:48Z</time>
</trkpt>
<trkpt lat="39.141090000" lon="-75.231230000">
  <ele>0.000000</ele>
  <time>2011-10-11T15:34:54Z</time>
</trkpt>
<trkpt lat="39.173300000" lon="-75.264510000">
  <ele>0.000000</ele>
  <time>2011-10-11T15:44:38Z</time>
</trkpt>
<trkpt lat="39.212310000" lon="-75.289920000">
  <ele>0.000000</ele>
  <time>2011-10-11T15:54:38Z</time>
</trkpt>
<trkpt lat="39.249400000" lon="-75.320620000">
  <ele>0.000000</ele>
  <time>2011-10-11T16:04:47Z</time>
</trkpt>
<trkpt lat="39.283160000" lon="-75.354030000">
  <ele>0.000000</ele>
  <time>2011-10-11T16:14:28Z</time>
</trkpt>
<trkpt lat="39.314420000" lon="-75.394670000">
  <ele>0.000000</ele>
  <time>2011-10-11T16:24:36Z</time>
</trkpt>
<trkpt lat="39.345830000" lon="-75.433380000">
  <ele>0.000000</ele>
  <time>2011-10-11T16:34:36Z</time>
</trkpt>
<trkpt lat="39.375120000" lon="-75.467010000">
  <ele>0.000000</ele>
  <time>2011-10-11T16:44:56Z</time>
</trkpt>
<trkpt lat="39.407440000" lon="-75.504510000">
  <ele>0.000000</ele>
  <time>2011-10-11T16:55:01Z</time>
</trkpt>
<trkpt lat="39.437310000" lon="-75.537210000">
  <ele>0.000000</ele>
  <time>2011-10-11T17:05:01Z</time>
</trkpt>
<trkpt lat="39.474950000" lon="-75.559270000">
  <ele>0.000000</ele>
  <time>2011-10-11T17:15:01Z</time>
</trkpt>
<trkpt lat="39.509090000" lon="-75.553860000">
  <ele>0.000000</ele>
  <time>2011-10-11T17:24:30Z</time>
</trkpt>
<trkpt lat="39.548420000" lon="-75.547360000">
  <ele>0.000000</ele>
  <time>2011-10-11T17:34:38Z</time>
</trkpt>
<trkpt lat="39.577880000" lon="-75.578190000">
  <ele>0.000000</ele>
  <time>2011-10-11T17:44:38Z</time>
</trkpt>
<trkpt lat="39.572550000" lon="-75.590060000">
  <ele>0.000000</ele>
  <time>2011-10-11T18:04:40Z</time>
</trkpt>
<trkpt lat="39.572520000" lon="-75.589940000">
  <ele>0.000000</ele>
  <time>2011-10-13T12:33:28Z</time>
</trkpt>
<trkpt lat="39.579480000" lon="-75.583860000">
  <ele>0.000000</ele>
  <time>2011-10-13T12:41:28Z</time>
</trkpt>
<trkpt lat="39.560970000" lon="-75.564610000">
  <ele>0.000000</ele>
  <time>2011-10-13T12:51:30Z</time>
</trkpt>
<trkpt lat="39.554390000" lon="-75.608830000">
  <ele>0.000000</ele>
  <time>2011-10-13T13:01:03Z</time>
</trkpt>
<trkpt lat="39.553330000" lon="-75.649380000">
  <ele>0.000000</ele>
  <time>2011-10-13T13:09:41Z</time>
</trkpt>
<trkpt lat="39.542850000" lon="-75.693820000">
  <ele>0.000000</ele>
  <time>2011-10-13T13:19:41Z</time>
</trkpt>
<trkpt lat="39.541170000" lon="-75.740880000">
  <ele>0.000000</ele>
  <time>2011-10-13T13:29:40Z</time>
</trkpt>
<trkpt lat="39.533760000" lon="-75.788540000">
  <ele>0.000000</ele>
  <time>2011-10-13T13:39:51Z</time>
</trkpt>
<trkpt lat="39.530160000" lon="-75.817630000">
  <ele>0.000000</ele>
  <time>2011-10-13T13:49:48Z</time>
</trkpt>
<trkpt lat="39.530650000" lon="-75.853550000">
  <ele>0.000000</ele>
  <time>2011-10-13T13:59:38Z</time>
</trkpt>
<trkpt lat="39.510960000" lon="-75.895450000">
  <ele>0.000000</ele>
  <time>2011-10-13T14:09:44Z</time>
</trkpt>
<trkpt lat="39.490970000" lon="-75.937380000">
  <ele>0.000000</ele>
  <time>2011-10-13T14:19:52Z</time>
</trkpt>
<trkpt lat="39.463510000" lon="-75.971590000">
  <ele>0.000000</ele>
  <time>2011-10-13T14:29:40Z</time>
</trkpt>
<trkpt lat="39.435470000" lon="-76.006710000">
  <ele>0.000000</ele>
  <time>2011-10-13T14:39:37Z</time>
</trkpt>
<trkpt lat="39.405030000" lon="-76.041840000">
  <ele>0.000000</ele>
  <time>2011-10-13T14:49:50Z</time>
</trkpt>
<trkpt lat="39.379290000" lon="-76.038730000">
  <ele>0.000000</ele>
  <time>2011-10-13T15:00:11Z</time>
</trkpt>
<trkpt lat="39.375520000" lon="-75.990590000">
  <ele>0.000000</ele>
  <time>2011-10-13T15:10:04Z</time>
</trkpt>
<trkpt lat="39.372220000" lon="-75.950680000">
  <ele>0.000000</ele>
  <time>2011-10-13T15:20:04Z</time>
</trkpt>
<trkpt lat="39.364060000" lon="-75.909850000">
  <ele>0.000000</ele>
  <time>2011-10-13T15:29:58Z</time>
</trkpt>
<trkpt lat="39.364450000" lon="-75.892910000">
  <ele>0.000000</ele>
  <time>2011-10-13T15:39:45Z</time>
</trkpt>
<trkpt lat="39.361680000" lon="-75.884400000">
  <ele>0.000000</ele>
  <time>2011-10-13T15:49:38Z</time>
</trkpt>
<trkpt lat="39.361570000" lon="-75.884370000">
  <ele>0.000000</ele>
  <time>2011-10-13T16:09:55Z</time>
</trkpt>
<trkpt lat="39.361650000" lon="-75.884370000">
  <ele>0.000000</ele>
  <time>2011-10-13T16:19:28Z</time>
</trkpt>
<trkpt lat="39.361600000" lon="-75.884340000">
  <ele>0.000000</ele>
  <time>2011-10-13T16:29:30Z</time>
</trkpt>
<trkpt lat="39.365380000" lon="-75.898280000">
  <ele>0.000000</ele>
  <time>2011-10-14T14:52:52Z</time>
</trkpt>
<trkpt lat="39.366970000" lon="-75.918240000">
  <ele>0.000000</ele>
  <time>2011-10-14T15:01:06Z</time>
</trkpt>
<trkpt lat="39.375120000" lon="-75.954440000">
  <ele>0.000000</ele>
  <time>2011-10-14T15:11:05Z</time>
</trkpt>
<trkpt lat="39.377870000" lon="-75.992830000">
  <ele>0.000000</ele>
  <time>2011-10-14T15:21:28Z</time>
</trkpt>
<trkpt lat="39.380620000" lon="-76.041410000">
  <ele>0.000000</ele>
  <time>2011-10-14T15:31:28Z</time>
</trkpt>
<trkpt lat="39.361040000" lon="-76.146170000">
  <ele>0.000000</ele>
  <time>2011-10-14T15:51:05Z</time>
</trkpt>
<trkpt lat="39.339630000" lon="-76.184190000">
  <ele>0.000000</ele>
  <time>2011-10-14T16:01:05Z</time>
</trkpt>
<trkpt lat="39.307740000" lon="-76.214320000">
  <ele>0.000000</ele>
  <time>2011-10-14T16:11:05Z</time>
</trkpt>
<trkpt lat="39.270370000" lon="-76.233010000">
  <ele>0.000000</ele>
  <time>2011-10-14T16:21:04Z</time>
</trkpt>
<trkpt lat="39.231700000" lon="-76.250520000">
  <ele>0.000000</ele>
  <time>2011-10-14T16:31:04Z</time>
</trkpt>
<trkpt lat="39.195660000" lon="-76.273830000">
  <ele>0.000000</ele>
  <time>2011-10-14T16:41:03Z</time>
</trkpt>
<trkpt lat="39.160020000" lon="-76.301770000">
  <ele>0.000000</ele>
  <time>2011-10-14T16:51:50Z</time>
</trkpt>
<trkpt lat="39.126460000" lon="-76.322880000">
  <ele>0.000000</ele>
  <time>2011-10-14T17:01:50Z</time>
</trkpt>
<trkpt lat="39.097050000" lon="-76.304110000">
  <ele>0.000000</ele>
  <time>2011-10-14T17:11:02Z</time>
</trkpt>
<trkpt lat="39.084030000" lon="-76.266480000">
  <ele>0.000000</ele>
  <time>2011-10-14T17:21:01Z</time>
</trkpt>
<trkpt lat="39.109350000" lon="-76.256870000">
  <ele>0.000000</ele>
  <time>2011-10-14T17:31:01Z</time>
</trkpt>
<trkpt lat="39.125750000" lon="-76.261350000">
  <ele>0.000000</ele>
  <time>2011-10-14T17:41:04Z</time>
</trkpt>
<trkpt lat="39.134360000" lon="-76.245940000">
  <ele>0.000000</ele>
  <time>2011-10-14T17:51:00Z</time>
</trkpt>
<trkpt lat="39.133080000" lon="-76.244290000">
  <ele>0.000000</ele>
  <time>2011-10-14T18:01:29Z</time>
</trkpt>
<trkpt lat="39.133010000" lon="-76.244320000">
  <ele>0.000000</ele>
  <time>2011-10-15T11:51:04Z</time>
</trkpt>
<trkpt lat="39.134590000" lon="-76.247380000">
  <ele>0.000000</ele>
  <time>2011-10-15T12:00:28Z</time>
</trkpt>
<trkpt lat="39.124550000" lon="-76.258300000">
  <ele>0.000000</ele>
  <time>2011-10-15T12:10:27Z</time>
</trkpt>
<trkpt lat="39.098320000" lon="-76.254030000">
  <ele>0.000000</ele>
  <time>2011-10-15T12:20:27Z</time>
</trkpt>
<trkpt lat="39.090080000" lon="-76.286070000">
  <ele>0.000000</ele>
  <time>2011-10-15T12:30:32Z</time>
</trkpt>
<trkpt lat="39.105510000" lon="-76.326780000">
  <ele>0.000000</ele>
  <time>2011-10-15T12:40:25Z</time>
</trkpt>
<trkpt lat="39.124800000" lon="-76.367920000">
  <ele>0.000000</ele>
  <time>2011-10-15T12:50:22Z</time>
</trkpt>
<trkpt lat="39.147220000" lon="-76.407710000">
  <ele>0.000000</ele>
  <time>2011-10-15T13:00:24Z</time>
</trkpt>
<trkpt lat="39.194980000" lon="-76.486480000">
  <ele>0.000000</ele>
  <time>2011-10-15T13:21:03Z</time>
</trkpt>
<trkpt lat="39.215000000" lon="-76.524660000">
  <ele>0.000000</ele>
  <time>2011-10-15T13:30:26Z</time>
</trkpt>
<trkpt lat="39.245910000" lon="-76.557040000">
  <ele>0.000000</ele>
  <time>2011-10-15T13:40:28Z</time>
</trkpt>
<trkpt lat="39.271140000" lon="-76.577300000">
  <ele>0.000000</ele>
  <time>2011-10-15T13:50:22Z</time>
</trkpt>
<trkpt lat="39.276340000" lon="-76.578920000">
  <ele>0.000000</ele>
  <time>2011-10-15T14:10:53Z</time>
</trkpt>
<trkpt lat="39.276390000" lon="-76.578860000">
  <ele>0.000000</ele>
  <time>2011-10-15T14:20:20Z</time>
</trkpt>
<trkpt lat="39.256770000" lon="-76.570710000">
  <ele>0.000000</ele>
  <time>2011-10-17T14:47:41Z</time>
</trkpt>
<trkpt lat="39.229180000" lon="-76.541260000">
  <ele>0.000000</ele>
  <time>2011-10-17T14:57:38Z</time>
</trkpt>
<trkpt lat="39.197590000" lon="-76.498410000">
  <ele>0.000000</ele>
  <time>2011-10-17T15:07:40Z</time>
</trkpt>
<trkpt lat="39.177800000" lon="-76.444150000">
  <ele>0.000000</ele>
  <time>2011-10-17T15:17:37Z</time>
</trkpt>
<trkpt lat="39.141930000" lon="-76.406830000">
  <ele>0.000000</ele>
  <time>2011-10-17T15:27:39Z</time>
</trkpt>
<trkpt lat="39.096230000" lon="-76.395100000">
  <ele>0.000000</ele>
  <time>2011-10-17T15:37:38Z</time>
</trkpt>
<trkpt lat="39.049240000" lon="-76.384460000">
  <ele>0.000000</ele>
  <time>2011-10-17T15:47:38Z</time>
</trkpt>
<trkpt lat="39.001950000" lon="-76.379000000">
  <ele>0.000000</ele>
  <time>2011-10-17T15:57:34Z</time>
</trkpt>
<trkpt lat="38.955470000" lon="-76.396610000">
  <ele>0.000000</ele>
  <time>2011-10-17T16:07:34Z</time>
</trkpt>
<trkpt lat="38.909660000" lon="-76.419590000">
  <ele>0.000000</ele>
  <time>2011-10-17T16:17:34Z</time>
</trkpt>
<trkpt lat="38.852790000" lon="-76.444090000">
  <ele>0.000000</ele>
  <time>2011-10-17T16:29:45Z</time>
</trkpt>
<trkpt lat="38.804180000" lon="-76.470500000">
  <ele>0.000000</ele>
  <time>2011-10-17T16:37:32Z</time>
</trkpt>
<trkpt lat="38.774740000" lon="-76.493500000">
  <ele>0.000000</ele>
  <time>2011-10-17T16:47:32Z</time>
</trkpt>
<trkpt lat="38.749540000" lon="-76.525450000">
  <ele>0.000000</ele>
  <time>2011-10-17T16:57:41Z</time>
</trkpt>
<trkpt lat="38.743090000" lon="-76.547310000">
  <ele>0.000000</ele>
  <time>2011-10-17T17:07:33Z</time>
</trkpt>
<trkpt lat="38.760640000" lon="-76.550230000">
  <ele>0.000000</ele>
  <time>2011-10-17T17:17:33Z</time>
</trkpt>
<trkpt lat="38.771220000" lon="-76.561650000">
  <ele>0.000000</ele>
  <time>2011-10-17T17:27:42Z</time>
</trkpt>
<trkpt lat="38.774130000" lon="-76.564030000">
  <ele>0.000000</ele>
  <time>2011-10-17T17:37:29Z</time>
</trkpt>
<trkpt lat="38.774120000" lon="-76.563960000">
  <ele>0.000000</ele>
  <time>2011-10-17T18:17:27Z</time>
</trkpt>
<trkpt lat="38.774100000" lon="-76.564030000">
  <ele>0.000000</ele>
  <time>2011-10-18T13:52:10Z</time>
</trkpt>
<trkpt lat="38.767400000" lon="-76.555480000">
  <ele>0.000000</ele>
  <time>2011-10-18T14:01:27Z</time>
</trkpt>
<trkpt lat="38.751310000" lon="-76.546570000">
  <ele>0.000000</ele>
  <time>2011-10-18T14:11:45Z</time>
</trkpt>
<trkpt lat="38.740150000" lon="-76.533510000">
  <ele>0.000000</ele>
  <time>2011-10-18T14:21:29Z</time>
</trkpt>
<trkpt lat="38.723230000" lon="-76.495090000">
  <ele>0.000000</ele>
  <time>2011-10-18T14:32:05Z</time>
</trkpt>
<trkpt lat="38.686540000" lon="-76.483400000">
  <ele>0.000000</ele>
  <time>2011-10-18T14:41:25Z</time>
</trkpt>
<trkpt lat="38.647590000" lon="-76.468750000">
  <ele>0.000000</ele>
  <time>2011-10-18T14:51:25Z</time>
</trkpt>
<trkpt lat="38.608390000" lon="-76.454280000">
  <ele>0.000000</ele>
  <time>2011-10-18T15:01:24Z</time>
</trkpt>
<trkpt lat="38.568160000" lon="-76.438020000">
  <ele>0.000000</ele>
  <time>2011-10-18T15:11:39Z</time>
</trkpt>
<trkpt lat="38.522370000" lon="-76.421810000">
  <ele>0.000000</ele>
  <time>2011-10-18T15:23:02Z</time>
</trkpt>
<trkpt lat="38.489530000" lon="-76.408510000">
  <ele>0.000000</ele>
  <time>2011-10-18T15:31:23Z</time>
</trkpt>
<trkpt lat="38.449330000" lon="-76.393370000">
  <ele>0.000000</ele>
  <time>2011-10-18T15:41:22Z</time>
</trkpt>
<trkpt lat="38.409180000" lon="-76.377960000">
  <ele>0.000000</ele>
  <time>2011-10-18T15:51:22Z</time>
</trkpt>
<trkpt lat="38.368560000" lon="-76.365050000">
  <ele>0.000000</ele>
  <time>2011-10-18T16:01:18Z</time>
</trkpt>
<trkpt lat="38.335420000" lon="-76.385190000">
  <ele>0.000000</ele>
  <time>2011-10-18T16:11:23Z</time>
</trkpt>
<trkpt lat="38.314250000" lon="-76.435700000">
  <ele>0.000000</ele>
  <time>2011-10-18T16:21:32Z</time>
</trkpt>
<trkpt lat="38.322230000" lon="-76.452090000">
  <ele>0.000000</ele>
  <time>2011-10-18T16:31:32Z</time>
</trkpt>
<trkpt lat="38.329780000" lon="-76.457490000">
  <ele>0.000000</ele>
  <time>2011-10-21T11:56:03Z</time>
</trkpt>
<trkpt lat="38.323170000" lon="-76.453830000">
  <ele>0.000000</ele>
  <time>2011-10-21T12:05:27Z</time>
</trkpt>
<trkpt lat="38.315390000" lon="-76.425320000">
  <ele>0.000000</ele>
  <time>2011-10-21T12:15:26Z</time>
</trkpt>
<trkpt lat="38.314350000" lon="-76.368620000">
  <ele>0.000000</ele>
  <time>2011-10-21T12:25:29Z</time>
</trkpt>
<trkpt lat="38.236350000" lon="-76.302030000">
  <ele>0.000000</ele>
  <time>2011-10-21T12:45:20Z</time>
</trkpt>
<trkpt lat="38.193860000" lon="-76.274220000">
  <ele>0.000000</ele>
  <time>2011-10-21T12:55:20Z</time>
</trkpt>
<trkpt lat="38.150340000" lon="-76.250270000">
  <ele>0.000000</ele>
  <time>2011-10-21T13:05:20Z</time>
</trkpt>
<trkpt lat="38.057200000" lon="-76.218110000">
  <ele>0.000000</ele>
  <time>2011-10-21T13:25:29Z</time>
</trkpt>
<trkpt lat="38.008980000" lon="-76.204410000">
  <ele>0.000000</ele>
  <time>2011-10-21T13:35:37Z</time>
</trkpt>
<trkpt lat="37.963490000" lon="-76.186340000">
  <ele>0.000000</ele>
  <time>2011-10-21T13:45:33Z</time>
</trkpt>
<trkpt lat="37.916760000" lon="-76.169710000">
  <ele>0.000000</ele>
  <time>2011-10-21T13:55:30Z</time>
</trkpt>
<trkpt lat="37.856220000" lon="-76.167450000">
  <ele>0.000000</ele>
  <time>2011-10-21T14:07:59Z</time>
</trkpt>
<trkpt lat="37.818860000" lon="-76.167900000">
  <ele>0.000000</ele>
  <time>2011-10-21T14:15:19Z</time>
</trkpt>
<trkpt lat="37.770970000" lon="-76.175110000">
  <ele>0.000000</ele>
  <time>2011-10-21T14:25:19Z</time>
</trkpt>
<trkpt lat="37.716900000" lon="-76.172930000">
  <ele>0.000000</ele>
  <time>2011-10-21T14:35:17Z</time>
</trkpt>
<trkpt lat="37.671970000" lon="-76.171560000">
  <ele>0.000000</ele>
  <time>2011-10-21T14:45:17Z</time>
</trkpt>
<trkpt lat="37.621590000" lon="-76.171300000">
  <ele>0.000000</ele>
  <time>2011-10-21T14:55:17Z</time>
</trkpt>
<trkpt lat="37.571240000" lon="-76.170870000">
  <ele>0.000000</ele>
  <time>2011-10-21T15:05:17Z</time>
</trkpt>
<trkpt lat="37.550580000" lon="-76.175630000">
  <ele>0.000000</ele>
  <time>2011-10-21T15:15:19Z</time>
</trkpt>
<trkpt lat="37.535280000" lon="-76.157710000">
  <ele>0.000000</ele>
  <time>2011-10-21T15:28:01Z</time>
</trkpt>
<trkpt lat="37.512210000" lon="-76.159060000">
  <ele>0.000000</ele>
  <time>2011-10-21T15:35:15Z</time>
</trkpt>
<trkpt lat="37.462640000" lon="-76.162320000">
  <ele>0.000000</ele>
  <time>2011-10-21T15:45:15Z</time>
</trkpt>
<trkpt lat="37.412540000" lon="-76.162750000">
  <ele>0.000000</ele>
  <time>2011-10-21T15:55:15Z</time>
</trkpt>
<trkpt lat="37.361040000" lon="-76.165220000">
  <ele>0.000000</ele>
  <time>2011-10-21T16:05:17Z</time>
</trkpt>
<trkpt lat="37.308640000" lon="-76.168910000">
  <ele>0.000000</ele>
  <time>2011-10-21T16:15:31Z</time>
</trkpt>
<trkpt lat="37.258680000" lon="-76.172270000">
  <ele>0.000000</ele>
  <time>2011-10-21T16:25:31Z</time>
</trkpt>
<trkpt lat="37.207980000" lon="-76.174650000">
  <ele>0.000000</ele>
  <time>2011-10-21T16:35:39Z</time>
</trkpt>
<trkpt lat="37.160480000" lon="-76.176700000">
  <ele>0.000000</ele>
  <time>2011-10-21T16:45:11Z</time>
</trkpt>
<trkpt lat="37.110830000" lon="-76.177640000">
  <ele>0.000000</ele>
  <time>2011-10-21T16:55:11Z</time>
</trkpt>
<trkpt lat="37.061280000" lon="-76.180110000">
  <ele>0.000000</ele>
  <time>2011-10-21T17:05:10Z</time>
</trkpt>
<trkpt lat="37.014440000" lon="-76.196140000">
  <ele>0.000000</ele>
  <time>2011-10-21T17:15:10Z</time>
</trkpt>
<trkpt lat="37.007420000" lon="-76.255340000">
  <ele>0.000000</ele>
  <time>2011-10-21T17:25:12Z</time>
</trkpt>
<trkpt lat="36.989970000" lon="-76.307830000">
  <ele>0.000000</ele>
  <time>2011-10-21T17:35:09Z</time>
</trkpt>
<trkpt lat="36.972530000" lon="-76.328950000">
  <ele>0.000000</ele>
  <time>2011-10-21T17:45:14Z</time>
</trkpt>
<trkpt lat="36.945840000" lon="-76.339290000">
  <ele>0.000000</ele>
  <time>2011-10-21T17:55:08Z</time>
</trkpt>
<trkpt lat="36.900590000" lon="-76.337890000">
  <ele>0.000000</ele>
  <time>2011-10-21T18:05:40Z</time>
</trkpt>
<trkpt lat="36.866910000" lon="-76.326220000">
  <ele>0.000000</ele>
  <time>2011-10-21T18:15:24Z</time>
</trkpt>
<trkpt lat="36.853350000" lon="-76.305880000">
  <ele>0.000000</ele>
  <time>2011-10-21T18:25:24Z</time>
</trkpt>
<trkpt lat="36.841740000" lon="-76.295780000">
  <ele>0.000000</ele>
  <time>2011-10-22T12:01:41Z</time>
</trkpt>
<trkpt lat="36.818620000" lon="-76.291080000">
  <ele>0.000000</ele>
  <time>2011-10-22T12:11:56Z</time>
</trkpt>
<trkpt lat="36.786770000" lon="-76.303310000">
  <ele>0.000000</ele>
  <time>2011-10-22T12:21:31Z</time>
</trkpt>
<trkpt lat="36.776380000" lon="-76.296300000">
  <ele>0.000000</ele>
  <time>2011-10-22T12:30:40Z</time>
</trkpt>
<trkpt lat="36.759630000" lon="-76.296970000">
  <ele>0.000000</ele>
  <time>2011-10-22T12:40:39Z</time>
</trkpt>
<trkpt lat="36.743470000" lon="-76.298000000">
  <ele>0.000000</ele>
  <time>2011-10-22T12:50:42Z</time>
</trkpt>
<trkpt lat="36.737340000" lon="-76.296080000">
  <ele>0.000000</ele>
  <time>2011-10-22T13:00:41Z</time>
</trkpt>
<trkpt lat="36.732050000" lon="-76.283420000">
  <ele>0.000000</ele>
  <time>2011-10-22T13:10:37Z</time>
</trkpt>
<trkpt lat="36.728130000" lon="-76.259800000">
  <ele>0.000000</ele>
  <time>2011-10-22T13:21:03Z</time>
</trkpt>
<trkpt lat="36.726200000" lon="-76.254740000">
  <ele>0.000000</ele>
  <time>2011-10-22T13:31:03Z</time>
</trkpt>
<trkpt lat="36.723990000" lon="-76.248470000">
  <ele>0.000000</ele>
  <time>2011-10-22T13:50:35Z</time>
</trkpt>
<trkpt lat="36.720920000" lon="-76.226780000">
  <ele>0.000000</ele>
  <time>2011-10-22T14:20:43Z</time>
</trkpt>
<trkpt lat="36.723520000" lon="-76.189210000">
  <ele>0.000000</ele>
  <time>2011-10-22T14:31:06Z</time>
</trkpt>
<trkpt lat="36.723570000" lon="-76.158260000">
  <ele>0.000000</ele>
  <time>2011-10-22T14:41:30Z</time>
</trkpt>
<trkpt lat="36.723420000" lon="-76.128970000">
  <ele>0.000000</ele>
  <time>2011-10-22T14:50:29Z</time>
</trkpt>
<trkpt lat="36.720360000" lon="-76.104980000">
  <ele>0.000000</ele>
  <time>2011-10-22T15:00:32Z</time>
</trkpt>
<trkpt lat="36.713600000" lon="-76.086000000">
  <ele>0.000000</ele>
  <time>2011-10-22T15:10:31Z</time>
</trkpt>
<trkpt lat="36.696080000" lon="-76.070330000">
  <ele>0.000000</ele>
  <time>2011-10-22T15:20:29Z</time>
</trkpt>
<trkpt lat="36.674790000" lon="-76.067840000">
  <ele>0.000000</ele>
  <time>2011-10-22T15:30:29Z</time>
</trkpt>
<trkpt lat="36.653850000" lon="-76.059600000">
  <ele>0.000000</ele>
  <time>2011-10-22T15:40:29Z</time>
</trkpt>
<trkpt lat="36.632850000" lon="-76.052830000">
  <ele>0.000000</ele>
  <time>2011-10-22T15:50:29Z</time>
</trkpt>
<trkpt lat="36.610760000" lon="-76.053070000">
  <ele>0.000000</ele>
  <time>2011-10-22T16:00:40Z</time>
</trkpt>
<trkpt lat="36.592750000" lon="-76.052950000">
  <ele>0.000000</ele>
  <time>2011-10-22T16:10:34Z</time>
</trkpt>
<trkpt lat="36.572970000" lon="-76.039520000">
  <ele>0.000000</ele>
  <time>2011-10-22T16:20:33Z</time>
</trkpt>
<trkpt lat="36.552510000" lon="-76.028110000">
  <ele>0.000000</ele>
  <time>2011-10-22T16:30:30Z</time>
</trkpt>
<trkpt lat="36.531160000" lon="-76.020080000">
  <ele>0.000000</ele>
  <time>2011-10-22T16:40:26Z</time>
</trkpt>
<trkpt lat="36.504680000" lon="-76.010830000">
  <ele>0.000000</ele>
  <time>2011-10-22T16:52:52Z</time>
</trkpt>
<trkpt lat="36.487510000" lon="-76.004940000">
  <ele>0.000000</ele>
  <time>2011-10-22T17:00:49Z</time>
</trkpt>
<trkpt lat="36.469620000" lon="-75.990420000">
  <ele>0.000000</ele>
  <time>2011-10-22T17:10:33Z</time>
</trkpt>
<trkpt lat="36.456280000" lon="-75.972530000">
  <ele>0.000000</ele>
  <time>2011-10-22T17:20:30Z</time>
</trkpt>
<trkpt lat="36.436210000" lon="-75.959690000">
  <ele>0.000000</ele>
  <time>2011-10-22T17:30:38Z</time>
</trkpt>
<trkpt lat="36.413090000" lon="-75.952940000">
  <ele>0.000000</ele>
  <time>2011-10-22T17:41:14Z</time>
</trkpt>
<trkpt lat="36.389370000" lon="-75.952210000">
  <ele>0.000000</ele>
  <time>2011-10-22T17:51:32Z</time>
</trkpt>
<trkpt lat="36.351200000" lon="-75.947630000">
  <ele>0.000000</ele>
  <time>2011-10-23T11:15:40Z</time>
</trkpt>
<trkpt lat="36.336870000" lon="-75.957030000">
  <ele>0.000000</ele>
  <time>2011-10-23T11:24:31Z</time>
</trkpt>
<trkpt lat="36.318230000" lon="-75.970150000">
  <ele>0.000000</ele>
  <time>2011-10-23T11:34:21Z</time>
</trkpt>
<trkpt lat="36.294310000" lon="-75.968810000">
  <ele>0.000000</ele>
  <time>2011-10-23T11:44:41Z</time>
</trkpt>
<trkpt lat="36.286100000" lon="-75.948550000">
  <ele>0.000000</ele>
  <time>2011-10-23T11:54:29Z</time>
</trkpt>
<trkpt lat="36.264430000" lon="-75.962860000">
  <ele>0.000000</ele>
  <time>2011-10-23T12:05:01Z</time>
</trkpt>
<trkpt lat="36.252800000" lon="-75.955140000">
  <ele>0.000000</ele>
  <time>2011-10-23T12:15:01Z</time>
</trkpt>
<trkpt lat="36.238380000" lon="-75.940400000">
  <ele>0.000000</ele>
  <time>2011-10-23T12:24:24Z</time>
</trkpt>
<trkpt lat="36.219670000" lon="-75.929020000">
  <ele>0.000000</ele>
  <time>2011-10-23T12:34:21Z</time>
</trkpt>
<trkpt lat="36.194390000" lon="-75.911100000">
  <ele>0.000000</ele>
  <time>2011-10-23T12:44:41Z</time>
</trkpt>
<trkpt lat="36.140250000" lon="-75.895110000">
  <ele>0.000000</ele>
  <time>2011-10-23T12:57:10Z</time>
</trkpt>
<trkpt lat="36.108060000" lon="-75.909720000">
  <ele>0.000000</ele>
  <time>2011-10-23T13:14:41Z</time>
</trkpt>
<trkpt lat="36.065140000" lon="-75.933410000">
  <ele>0.000000</ele>
  <time>2011-10-23T13:24:41Z</time>
</trkpt>
<trkpt lat="36.023130000" lon="-75.954440000">
  <ele>0.000000</ele>
  <time>2011-10-23T13:34:41Z</time>
</trkpt>
<trkpt lat="35.982770000" lon="-75.975160000">
  <ele>0.000000</ele>
  <time>2011-10-23T13:44:23Z</time>
</trkpt>
<trkpt lat="35.928830000" lon="-75.997210000">
  <ele>0.000000</ele>
  <time>2011-10-23T14:04:57Z</time>
</trkpt>
<trkpt lat="35.905870000" lon="-76.006910000">
  <ele>0.000000</ele>
  <time>2011-10-23T14:14:57Z</time>
</trkpt>
<trkpt lat="35.883000000" lon="-76.015750000">
  <ele>0.000000</ele>
  <time>2011-10-23T14:24:57Z</time>
</trkpt>
<trkpt lat="35.861010000" lon="-76.024410000">
  <ele>0.000000</ele>
  <time>2011-10-23T14:34:44Z</time>
</trkpt>
<trkpt lat="35.831840000" lon="-76.027010000">
  <ele>0.000000</ele>
  <time>2011-10-23T14:46:56Z</time>
</trkpt>
<trkpt lat="35.809460000" lon="-76.024840000">
  <ele>0.000000</ele>
  <time>2011-10-23T14:54:10Z</time>
</trkpt>
<trkpt lat="35.731170000" lon="-76.015290000">
  <ele>0.000000</ele>
  <time>2011-10-23T15:14:18Z</time>
</trkpt>
<trkpt lat="35.692370000" lon="-76.019650000">
  <ele>0.000000</ele>
  <time>2011-10-23T15:24:42Z</time>
</trkpt>
<trkpt lat="35.669770000" lon="-76.040040000">
  <ele>0.000000</ele>
  <time>2011-10-23T15:34:17Z</time>
</trkpt>
<trkpt lat="35.673990000" lon="-76.068390000">
  <ele>0.000000</ele>
  <time>2011-10-23T15:44:13Z</time>
</trkpt>
<trkpt lat="35.669170000" lon="-76.095250000">
  <ele>0.000000</ele>
  <time>2011-10-23T15:54:19Z</time>
</trkpt>
<trkpt lat="35.648700000" lon="-76.134740000">
  <ele>0.000000</ele>
  <time>2011-10-23T16:05:30Z</time>
</trkpt>
<trkpt lat="35.622890000" lon="-76.178860000">
  <ele>0.000000</ele>
  <time>2011-10-23T16:17:48Z</time>
</trkpt>
<trkpt lat="35.607470000" lon="-76.204900000">
  <ele>0.000000</ele>
  <time>2011-10-23T16:24:05Z</time>
</trkpt>
<trkpt lat="35.586750000" lon="-76.262420000">
  <ele>0.000000</ele>
  <time>2011-10-23T16:34:41Z</time>
</trkpt>
<trkpt lat="35.579670000" lon="-76.301880000">
  <ele>0.000000</ele>
  <time>2011-10-23T16:44:07Z</time>
</trkpt>
<trkpt lat="35.570690000" lon="-76.353610000">
  <ele>0.000000</ele>
  <time>2011-10-23T16:54:04Z</time>
</trkpt>
<trkpt lat="35.560100000" lon="-76.412570000">
  <ele>0.000000</ele>
  <time>2011-10-23T17:04:03Z</time>
</trkpt>
<trkpt lat="35.551760000" lon="-76.459470000">
  <ele>0.000000</ele>
  <time>2011-10-23T17:14:06Z</time>
</trkpt>
<trkpt lat="35.518630000" lon="-76.498960000">
  <ele>0.000000</ele>
  <time>2011-10-23T17:24:29Z</time>
</trkpt>
<trkpt lat="35.520990000" lon="-76.559020000">
  <ele>0.000000</ele>
  <time>2011-10-23T17:34:22Z</time>
</trkpt>
<trkpt lat="35.523210000" lon="-76.606380000">
  <ele>0.000000</ele>
  <time>2011-10-23T17:44:04Z</time>
</trkpt>
<trkpt lat="35.535280000" lon="-76.623050000">
  <ele>0.000000</ele>
  <time>2011-10-23T17:54:24Z</time>
</trkpt>
<trkpt lat="35.527870000" lon="-76.615110000">
  <ele>0.000000</ele>
  <time>2011-10-24T12:37:42Z</time>
</trkpt>
<trkpt lat="35.399650000" lon="-76.556700000">
  <ele>0.000000</ele>
  <time>2011-10-24T13:14:04Z</time>
</trkpt>
<trkpt lat="35.361600000" lon="-76.573120000">
  <ele>0.000000</ele>
  <time>2011-10-24T13:24:10Z</time>
</trkpt>
<trkpt lat="35.335320000" lon="-76.607210000">
  <ele>0.000000</ele>
  <time>2011-10-24T13:33:54Z</time>
</trkpt>
<trkpt lat="35.313370000" lon="-76.617950000">
  <ele>0.000000</ele>
  <time>2011-10-24T13:44:15Z</time>
</trkpt>
<trkpt lat="35.292600000" lon="-76.616360000">
  <ele>0.000000</ele>
  <time>2011-10-24T13:53:53Z</time>
</trkpt>
<trkpt lat="35.273990000" lon="-76.604250000">
  <ele>0.000000</ele>
  <time>2011-10-24T14:04:17Z</time>
</trkpt>
<trkpt lat="35.256900000" lon="-76.595700000">
  <ele>0.000000</ele>
  <time>2011-10-24T14:13:52Z</time>
</trkpt>
<trkpt lat="35.236590000" lon="-76.590150000">
  <ele>0.000000</ele>
  <time>2011-10-24T14:24:37Z</time>
</trkpt>
<trkpt lat="35.219010000" lon="-76.592620000">
  <ele>0.000000</ele>
  <time>2011-10-24T14:33:54Z</time>
</trkpt>
<trkpt lat="35.200200000" lon="-76.583340000">
  <ele>0.000000</ele>
  <time>2011-10-24T14:44:18Z</time>
</trkpt>
<trkpt lat="35.177990000" lon="-76.551380000">
  <ele>0.000000</ele>
  <time>2011-10-24T14:54:26Z</time>
</trkpt>
<trkpt lat="35.149320000" lon="-76.500310000">
  <ele>0.000000</ele>
  <time>2011-10-24T15:04:26Z</time>
</trkpt>
<trkpt lat="35.116420000" lon="-76.513090000">
  <ele>0.000000</ele>
  <time>2011-10-24T15:13:52Z</time>
</trkpt>
<trkpt lat="35.078460000" lon="-76.537570000">
  <ele>0.000000</ele>
  <time>2011-10-24T15:24:01Z</time>
</trkpt>
<trkpt lat="35.056130000" lon="-76.582180000">
  <ele>0.000000</ele>
  <time>2011-10-24T15:33:54Z</time>
</trkpt>
<trkpt lat="35.033100000" lon="-76.629760000">
  <ele>0.000000</ele>
  <time>2011-10-24T15:44:21Z</time>
</trkpt>
<trkpt lat="35.016100000" lon="-76.674470000">
  <ele>0.000000</ele>
  <time>2011-10-24T15:53:47Z</time>
</trkpt>
<trkpt lat="35.021250000" lon="-76.699400000">
  <ele>0.000000</ele>
  <time>2011-10-24T16:04:13Z</time>
</trkpt>
<trkpt lat="35.022910000" lon="-76.698910000">
  <ele>0.000000</ele>
  <time>2011-10-24T16:13:48Z</time>
</trkpt>
<trkpt lat="35.024110000" lon="-76.699980000">
  <ele>0.000000</ele>
  <time>2011-10-24T16:24:12Z</time>
</trkpt>
<trkpt lat="35.023870000" lon="-76.699860000">
  <ele>0.000000</ele>
  <time>2011-10-25T13:28:48Z</time>
</trkpt>
<trkpt lat="35.013890000" lon="-76.690370000">
  <ele>0.000000</ele>
  <time>2011-10-25T13:36:15Z</time>
</trkpt>
<trkpt lat="34.969770000" lon="-76.685560000">
  <ele>0.000000</ele>
  <time>2011-10-25T13:47:41Z</time>
</trkpt>
<trkpt lat="34.946940000" lon="-76.665990000">
  <ele>0.000000</ele>
  <time>2011-10-25T13:57:41Z</time>
</trkpt>
<trkpt lat="34.929030000" lon="-76.654950000">
  <ele>0.000000</ele>
  <time>2011-10-25T14:06:09Z</time>
</trkpt>
<trkpt lat="34.910400000" lon="-76.665160000">
  <ele>0.000000</ele>
  <time>2011-10-25T14:16:09Z</time>
</trkpt>
<trkpt lat="34.896400000" lon="-76.685330000">
  <ele>0.000000</ele>
  <time>2011-10-25T14:26:15Z</time>
</trkpt>
<trkpt lat="34.870780000" lon="-76.691650000">
  <ele>0.000000</ele>
  <time>2011-10-25T14:36:32Z</time>
</trkpt>
<trkpt lat="34.847480000" lon="-76.689820000">
  <ele>0.000000</ele>
  <time>2011-10-25T14:46:08Z</time>
</trkpt>
<trkpt lat="34.825380000" lon="-76.691280000">
  <ele>0.000000</ele>
  <time>2011-10-25T14:56:10Z</time>
</trkpt>
<trkpt lat="34.803420000" lon="-76.686550000">
  <ele>0.000000</ele>
  <time>2011-10-25T15:06:07Z</time>
</trkpt>
<trkpt lat="34.778570000" lon="-76.685910000">
  <ele>0.000000</ele>
  <time>2011-10-25T15:16:06Z</time>
</trkpt>
<trkpt lat="34.755650000" lon="-76.673550000">
  <ele>0.000000</ele>
  <time>2011-10-25T15:26:05Z</time>
</trkpt>
<trkpt lat="34.729830000" lon="-76.691710000">
  <ele>0.000000</ele>
  <time>2011-10-25T15:36:14Z</time>
</trkpt>
<trkpt lat="34.722610000" lon="-76.704130000">
  <ele>0.000000</ele>
  <time>2011-10-25T15:46:04Z</time>
</trkpt>
<trkpt lat="34.721790000" lon="-76.704560000">
  <ele>0.000000</ele>
  <time>2011-10-25T15:56:04Z</time>
</trkpt>
<trkpt lat="34.721680000" lon="-76.704350000">
  <ele>0.000000</ele>
  <time>2011-10-25T16:06:03Z</time>
</trkpt>
<trkpt lat="34.721840000" lon="-76.704530000">
  <ele>0.000000</ele>
  <time>2011-10-26T11:09:05Z</time>
</trkpt>
<trkpt lat="34.718790000" lon="-76.693360000">
  <ele>0.000000</ele>
  <time>2011-10-26T11:17:41Z</time>
</trkpt>
<trkpt lat="34.698710000" lon="-76.674430000">
  <ele>0.000000</ele>
  <time>2011-10-26T11:27:34Z</time>
</trkpt>
<trkpt lat="34.651800000" lon="-76.685670000">
  <ele>0.000000</ele>
  <time>2011-10-26T11:37:34Z</time>
</trkpt>
<trkpt lat="34.597660000" lon="-76.753230000">
  <ele>0.000000</ele>
  <time>2011-10-26T11:50:24Z</time>
</trkpt>
<trkpt lat="34.568050000" lon="-76.790650000">
  <ele>0.000000</ele>
  <time>2011-10-26T11:57:33Z</time>
</trkpt>
<trkpt lat="34.524920000" lon="-76.844090000">
  <ele>0.000000</ele>
  <time>2011-10-26T12:07:44Z</time>
</trkpt>
<trkpt lat="34.482620000" lon="-76.896610000">
  <ele>0.000000</ele>
  <time>2011-10-26T12:17:50Z</time>
</trkpt>
<trkpt lat="34.353480000" lon="-77.056180000">
  <ele>0.000000</ele>
  <time>2011-10-26T12:48:18Z</time>
</trkpt>
<trkpt lat="34.314080000" lon="-77.105320000">
  <ele>0.000000</ele>
  <time>2011-10-26T12:57:44Z</time>
</trkpt>
<trkpt lat="34.270610000" lon="-77.155230000">
  <ele>0.000000</ele>
  <time>2011-10-26T13:07:32Z</time>
</trkpt>
<trkpt lat="34.229930000" lon="-77.208190000">
  <ele>0.000000</ele>
  <time>2011-10-26T13:17:32Z</time>
</trkpt>
<trkpt lat="34.187900000" lon="-77.259830000">
  <ele>0.000000</ele>
  <time>2011-10-26T13:27:28Z</time>
</trkpt>
<trkpt lat="34.103010000" lon="-77.363560000">
  <ele>0.000000</ele>
  <time>2011-10-26T13:47:26Z</time>
</trkpt>
<trkpt lat="33.959000000" lon="-77.539200000">
  <ele>0.000000</ele>
  <time>2011-10-26T14:17:27Z</time>
</trkpt>
<trkpt lat="33.889390000" lon="-77.623570000">
  <ele>0.000000</ele>
  <time>2011-10-26T14:37:27Z</time>
</trkpt>
<trkpt lat="33.803340000" lon="-77.727720000">
  <ele>0.000000</ele>
  <time>2011-10-26T14:57:26Z</time>
</trkpt>
<trkpt lat="33.716880000" lon="-77.831330000">
  <ele>0.000000</ele>
  <time>2011-10-26T15:17:31Z</time>
</trkpt>
<trkpt lat="33.665080000" lon="-77.872830000">
  <ele>0.000000</ele>
  <time>2011-10-26T15:27:42Z</time>
</trkpt>
<trkpt lat="33.668870000" lon="-77.926450000">
  <ele>0.000000</ele>
  <time>2011-10-26T15:37:30Z</time>
</trkpt>
<trkpt lat="33.720020000" lon="-77.958950000">
  <ele>0.000000</ele>
  <time>2011-10-26T15:47:23Z</time>
</trkpt>
<trkpt lat="33.782810000" lon="-77.997410000">
  <ele>0.000000</ele>
  <time>2011-10-26T15:59:19Z</time>
</trkpt>
<trkpt lat="33.825390000" lon="-78.022520000">
  <ele>0.000000</ele>
  <time>2011-10-26T16:07:19Z</time>
</trkpt>
<trkpt lat="33.866260000" lon="-78.015410000">
  <ele>0.000000</ele>
  <time>2011-10-26T16:17:28Z</time>
</trkpt>
<trkpt lat="33.887650000" lon="-78.006810000">
  <ele>0.000000</ele>
  <time>2011-10-26T16:27:39Z</time>
</trkpt>
<trkpt lat="33.905270000" lon="-78.018400000">
  <ele>0.000000</ele>
  <time>2011-10-26T16:37:17Z</time>
</trkpt>
<trkpt lat="33.915740000" lon="-78.024840000">
  <ele>0.000000</ele>
  <time>2011-10-26T16:47:17Z</time>
</trkpt>
<trkpt lat="33.917240000" lon="-78.028260000">
  <ele>0.000000</ele>
  <time>2011-10-26T16:57:22Z</time>
</trkpt>
</trkseg>
</trk></gpx>
